Time;durP1;ratioP1;P1;durP2;ratioP2;P2;SDS_P1;SDS_P2;PMS_P1;PMS_P2;Temp;Humidity;BMP_temperature;BMP_pressure;BME280_temperature;BME280_humidity;BME280_pressure;Samples;Min_cycle;Max_cycle;Signal;HPM_P1;HPM_P2
2021/12/29 00:00:46;;;;;;;10.02;5.05;;;11.50;99.90;;;;;;5031191;28;20049;-73
2021/12/29 00:03:50;;;;;;;14.90;4.25;;;11.50;99.90;;;;;;5031009;28;20052;-73
2021/12/29 00:06:56;;;;;;;8.57;2.08;;;11.50;99.90;;;;;;5031132;28;20045;-73
2021/12/29 00:10:01;;;;;;;5.20;1.55;;;11.60;99.90;;;;;;5030528;28;20392;-73
2021/12/29 00:13:06;;;;;;;6.10;2.20;;;11.60;99.90;;;;;;5030859;28;20044;-73
2021/12/29 00:16:10;;;;;;;6.05;2.60;;;11.60;99.90;;;;;;5030714;28;20054;-74
2021/12/29 00:19:14;;;;;;;15.75;3.47;;;11.50;99.90;;;;;;5030428;28;20074;-73
2021/12/29 00:22:21;;;;;;;9.95;2.22;;;11.50;99.90;;;;;;5030762;28;20578;-73
2021/12/29 00:25:25;;;;;;;13.68;3.08;;;11.50;99.90;;;;;;5030617;28;20052;-74
2021/12/29 00:28:29;;;;;;;7.20;2.15;;;11.50;99.90;;;;;;5040771;28;20040;-73
2021/12/29 00:31:33;;;;;;;9.48;2.20;;;11.50;99.90;;;;;;5030703;28;20068;-73
2021/12/29 00:34:56;;;;;;;7.85;1.85;;;11.60;99.90;;;;;;5030756;28;20060;-73
2021/12/29 00:38:19;;;;;;;18.30;6.45;;;11.50;99.90;;;;;;5029593;28;20165;-73
2021/12/29 00:41:47;;;;;;;14.68;3.38;;;11.40;99.90;;;;;;5030521;28;20040;-73
2021/12/29 00:45:10;;;;;;;11.27;2.33;;;11.30;99.90;;;;;;5030641;28;20053;-73
2021/12/29 00:48:15;;;;;;;10.23;2.40;;;11.30;99.90;;;;;;5029873;28;20044;-73
2021/12/29 00:51:19;;;;;;;10.43;2.17;;;11.20;99.90;;;;;;5030598;28;20491;-73
2021/12/29 00:54:24;;;;;;;8.07;1.95;;;11.10;99.90;;;;;;5030431;28;20055;-73
2021/12/29 00:57:29;;;;;;;5.35;2.55;;;11.00;99.90;;;;;;5030113;28;20056;-74
2021/12/29 01:00:37;;;;;;;8.45;2.70;;;11.00;99.90;;;;;;5029472;28;20040;-73
2021/12/29 01:03:43;;;;;;;8.48;2.22;;;10.90;99.90;;;;;;5029900;28;20547;-73
2021/12/29 01:06:47;;;;;;;8.98;2.28;;;10.90;99.90;;;;;;5029513;28;20049;-73
2021/12/29 01:09:50;;;;;;;9.73;2.65;;;10.90;99.90;;;;;;5029609;28;20044;-73
2021/12/29 01:13:00;;;;;;;10.98;2.22;;;10.80;99.90;;;;;;5030137;28;20040;-74
2021/12/29 01:19:25;;;;;;;9.25;3.42;;;10.70;99.90;;;;;;5029687;28;20396;-74
2021/12/29 01:22:29;;;;;;;9.10;3.50;;;10.70;99.90;;;;;;5029751;28;20052;-73
2021/12/29 01:25:33;;;;;;;8.70;3.40;;;10.70;99.90;;;;;;5029981;28;20506;-73
2021/12/29 01:28:38;;;;;;;9.98;3.00;;;10.70;99.90;;;;;;5029321;28;20037;-73
2021/12/29 01:31:43;;;;;;;7.93;3.00;;;10.70;99.90;;;;;;5029938;28;20056;-74
2021/12/29 01:34:47;;;;;;;15.15;3.35;;;10.60;99.90;;;;;;5029883;28;20048;-74
2021/12/29 01:37:52;;;;;;;9.73;3.17;;;10.60;99.90;;;;;;5029917;28;20052;-73
2021/12/29 01:40:57;;;;;;;7.90;2.88;;;10.60;99.90;;;;;;5029898;28;20037;-73
2021/12/29 01:44:02;;;;;;;7.07;3.47;;;10.60;99.90;;;;;;5029550;28;20065;-73
2021/12/29 01:47:06;;;;;;;5.93;2.25;;;10.60;99.90;;;;;;5029722;28;20048;-73
2021/12/29 01:50:11;;;;;;;9.30;3.42;;;10.50;99.90;;;;;;5029501;28;20052;-74
2021/12/29 01:53:23;;;;;;;13.20;3.63;;;10.50;99.90;;;;;;5029445;28;20049;-73
2021/12/29 01:56:28;;;;;;;;;;;10.40;99.90;;;;;;5030084;28;20111;-73
2021/12/29 01:59:32;;;;;;;15.20;4.20;;;10.50;99.90;;;;;;5029422;28;19931;-73
2021/12/29 02:02:37;;;;;;;11.20;2.50;;;10.50;99.90;;;;;;5029294;28;20065;-73
2021/12/29 02:05:42;;;;;;;6.70;2.55;;;10.60;99.90;;;;;;5029307;28;20490;-73
2021/12/29 02:08:46;;;;;;;6.22;2.40;;;10.60;99.90;;;;;;5029040;28;20121;-73
2021/12/29 02:11:51;;;;;;;15.30;5.47;;;10.60;99.90;;;;;;5031914;28;20041;-74
2021/12/29 02:14:55;;;;;;;8.52;3.03;;;10.60;99.90;;;;;;5033037;28;20044;-73
2021/12/29 02:17:59;;;;;;;6.90;2.67;;;10.70;99.90;;;;;;5032908;28;20384;-74
2021/12/29 02:21:03;;;;;;;14.98;4.47;;;10.70;99.90;;;;;;5032898;28;20072;-74
2021/12/29 02:27:16;;;;;;;7.25;3.15;;;10.70;99.90;;;;;;5033129;28;20044;-74
2021/12/29 02:30:25;;;;;;;7.72;2.88;;;10.70;99.90;;;;;;5031403;28;20036;-74
2021/12/29 02:33:31;;;;;;;19.02;3.00;;;10.70;99.90;;;;;;5032635;28;20048;-74
2021/12/29 02:36:42;;;;;;;13.93;2.72;;;10.70;99.90;;;;;;5032718;28;20053;-74
2021/12/29 02:39:48;;;;;;;19.58;3.08;;;10.70;99.90;;;;;;5032681;28;20053;-74
2021/12/29 02:42:53;;;;;;;11.68;2.80;;;10.60;99.90;;;;;;5032498;28;20057;-74
2021/12/29 02:46:00;;;;;;;13.52;2.80;;;10.60;99.90;;;;;;5032789;28;20507;-74
2021/12/29 02:49:04;;;;;;;10.13;2.95;;;10.60;99.90;;;;;;5032491;28;20048;-74
2021/12/29 02:52:10;;;;;;;10.73;2.42;;;10.50;99.90;;;;;;5032871;28;20045;-74
2021/12/29 02:55:16;;;;;;;9.68;2.47;;;10.50;99.90;;;;;;5032771;28;20044;-74
2021/12/29 02:58:22;;;;;;;6.25;2.47;;;10.50;99.90;;;;;;5031500;28;20052;-74
2021/12/29 03:01:27;;;;;;;6.97;2.72;;;10.60;99.90;;;;;;5032658;28;20104;-74
2021/12/29 03:04:31;;;;;;;5.63;2.00;;;10.60;99.90;;;;;;5032077;28;20045;-74
2021/12/29 03:07:35;;;;;;;9.55;2.40;;;10.70;99.90;;;;;;5032213;28;20056;-74
2021/12/29 03:10:40;;;;;;;5.82;2.30;;;10.70;99.90;;;;;;5031948;28;20517;-74
2021/12/29 03:13:44;;;;;;;7.22;2.22;;;10.70;99.90;;;;;;5031826;28;20052;-74
2021/12/29 03:16:48;;;;;;;3.65;1.48;;;10.70;99.90;;;;;;5031950;28;20365;-75
2021/12/29 03:19:52;;;;;;;5.78;1.40;;;10.80;99.90;;;;;;5031310;28;20397;-74
2021/12/29 03:22:57;;;;;;;3.88;1.45;;;11.00;99.90;;;;;;5029565;28;20499;-74
2021/12/29 03:26:02;;;;;;;4.20;1.40;;;10.90;99.90;;;;;;5031669;28;20056;-74
2021/12/29 03:29:07;;;;;;;5.43;1.65;;;11.00;99.90;;;;;;5031164;28;20037;-74
2021/12/29 03:32:20;;;;;;;5.28;1.40;;;11.00;99.90;;;;;;5031474;28;20056;-74
2021/12/29 03:35:24;;;;;;;5.78;1.45;;;11.00;99.90;;;;;;5031488;28;20048;-74
2021/12/29 03:38:32;;;;;;;3.85;1.63;;;11.00;99.90;;;;;;5030901;28;20040;-74
2021/12/29 03:41:36;;;;;;;3.13;1.42;;;11.00;99.90;;;;;;5031453;28;20052;-74
2021/12/29 03:44:40;;;;;;;4.72;1.75;;;11.10;99.90;;;;;;5030771;28;20057;-74
2021/12/29 03:47:44;;;;;;;5.32;1.58;;;11.10;99.90;;;;;;5031355;28;20044;-74
2021/12/29 03:50:48;;;;;;;3.90;1.30;;;11.10;99.90;;;;;;5031107;28;20045;-74
2021/12/29 03:53:52;;;;;;;6.15;1.52;;;11.00;99.90;;;;;;5031044;28;20076;-74
2021/12/29 03:57:00;;;;;;;5.00;1.45;;;11.00;99.90;;;;;;5031090;28;20067;-74
2021/12/29 04:00:09;;;;;;;5.35;1.58;;;11.00;99.90;;;;;;5030766;28;20044;-74
2021/12/29 04:03:15;;;;;;;5.75;1.80;;;10.90;99.90;;;;;;5030526;28;20575;-74
2021/12/29 04:06:21;;;;;;;7.38;2.03;;;11.00;99.90;;;;;;5031304;28;20049;-74
2021/12/29 04:09:25;;;;;;;3.63;1.80;;;10.90;99.90;;;;;;5030906;28;20040;-74
2021/12/29 04:12:29;;;;;;;4.28;1.50;;;10.90;99.90;;;;;;5030873;28;20036;-74
2021/12/29 04:15:33;;;;;;;5.03;1.80;;;10.90;99.90;;;;;;5030986;28;20513;-74
2021/12/29 04:18:45;;;;;;;4.57;1.85;;;10.90;99.90;;;;;;5030611;28;20096;-74
2021/12/29 04:21:49;;;;;;;9.95;2.28;;;10.90;99.90;;;;;;5031142;28;20392;-74
2021/12/29 04:24:53;;;;;;;4.35;1.77;;;10.90;99.90;;;;;;5030761;28;20077;-74
2021/12/29 04:27:57;;;;;;;3.83;1.75;;;10.90;99.90;;;;;;5030893;28;20044;-74
2021/12/29 04:31:07;;;;;;;9.75;1.92;;;10.80;99.90;;;;;;5030933;28;20036;-74
2021/12/29 04:34:11;;;;;;;9.02;2.05;;;10.90;99.90;;;;;;5030650;28;20048;-74
2021/12/29 04:37:15;;;;;;;4.43;1.67;;;10.90;99.90;;;;;;5030104;28;20484;-74
2021/12/29 04:40:20;;;;;;;4.45;1.80;;;10.90;99.90;;;;;;5030355;28;20511;-74
2021/12/29 04:43:27;;;;;;;4.88;1.65;;;10.90;99.90;;;;;;5030346;28;20496;-74
2021/12/29 04:46:39;;;;;;;3.08;2.05;;;11.00;99.90;;;;;;5030627;28;20064;-74
2021/12/29 04:49:45;;;;;;;5.80;1.55;;;11.00;99.90;;;;;;5030207;28;20052;-74
2021/12/29 04:52:57;;;;;;;7.85;1.98;;;11.00;99.90;;;;;;5030557;28;20048;-74
2021/12/29 04:56:01;;;;;;;3.22;1.70;;;11.00;99.90;;;;;;5030458;28;20040;-74
2021/12/29 04:59:05;;;;;;;3.33;1.70;;;11.00;99.90;;;;;;5029896;28;20080;-74
2021/12/29 05:02:09;;;;;;;5.38;1.40;;;11.00;99.90;;;;;;5029922;28;20061;-74
2021/12/29 05:05:53;;;;;;;6.43;1.77;;;11.00;99.90;;;;;;5030034;28;20052;-74
2021/12/29 05:08:44;;;;;;;5.45;1.80;;;11.10;99.90;;;;;;5029630;28;20049;-74
2021/12/29 05:11:48;;;;;;;6.28;1.77;;;11.10;99.90;;;;;;5029963;28;20048;-74
2021/12/29 05:14:52;;;;;;;6.05;1.80;;;11.10;99.90;;;;;;5029754;28;20048;-73
2021/12/29 05:17:58;;;;;;;5.68;1.75;;;11.10;99.90;;;;;;5029977;28;20048;-74
2021/12/29 05:21:04;;;;;;;5.07;1.55;;;11.10;99.90;;;;;;5030039;28;20048;-74
2021/12/29 05:24:08;;;;;;;3.50;1.60;;;11.10;99.90;;;;;;5029813;28;20596;-74
2021/12/29 05:27:12;;;;;;;4.03;1.60;;;11.10;99.90;;;;;;5029562;28;20044;-74
2021/12/29 05:30:17;;;;;;;4.75;2.00;;;11.10;99.90;;;;;;5029357;28;20036;-74
2021/12/29 05:33:21;;;;;;;3.28;1.42;;;11.10;99.90;;;;;;5030371;28;20056;-74
2021/12/29 05:36:25;;;;;;;4.38;1.92;;;11.10;99.90;;;;;;5029992;28;20117;-74
2021/12/29 05:39:30;;;;;;;5.85;1.90;;;11.10;99.90;;;;;;5030084;28;20049;-74
2021/12/29 05:42:34;;;;;;;7.90;1.88;;;11.10;99.90;;;;;;5030421;28;20044;-74
2021/12/29 05:45:39;;;;;;;4.80;1.70;;;11.10;99.90;;;;;;5030714;28;20044;-74
2021/12/29 05:48:43;;;;;;;5.50;1.98;;;11.10;99.90;;;;;;5034219;28;20056;-74
2021/12/29 05:51:48;;;;;;;6.05;2.08;;;11.10;99.90;;;;;;5033943;28;20056;-74
2021/12/29 05:54:52;;;;;;;5.55;1.67;;;11.10;99.90;;;;;;5034192;28;20049;-74
2021/12/29 05:57:56;;;;;;;9.52;2.58;;;11.10;99.90;;;;;;5034231;28;20057;-74
2021/12/29 06:01:01;;;;;;;11.02;2.20;;;11.10;99.90;;;;;;5033069;28;20045;-74
2021/12/29 06:04:06;;;;;;;6.22;1.92;;;11.10;99.90;;;;;;5033804;28;20519;-75
2021/12/29 06:07:10;;;;;;;5.20;1.73;;;11.10;99.90;;;;;;5034118;28;20048;-75
2021/12/29 06:10:14;;;;;;;7.25;2.35;;;11.00;99.90;;;;;;5033757;28;20057;-74
2021/12/29 06:13:19;;;;;;;3.88;1.58;;;11.00;99.90;;;;;;5034172;28;20388;-75
2021/12/29 06:16:22;;;;;;;4.60;1.77;;;11.00;99.90;;;;;;5033597;28;20044;-74
2021/12/29 06:19:26;;;;;;;5.35;2.80;;;11.00;99.90;;;;;;5033512;28;20056;-75
2021/12/29 06:22:31;;;;;;;9.05;3.58;;;11.00;99.90;;;;;;5033525;28;20052;-75
2021/12/29 06:25:35;;;;;;;5.13;3.17;;;11.00;99.90;;;;;;5033474;28;20045;-75
2021/12/29 06:28:39;;;;;;;4.45;2.30;;;11.00;99.90;;;;;;5033365;28;20053;-75
2021/12/29 06:31:44;;;;;;;5.78;2.42;;;11.00;99.90;;;;;;5044071;28;20049;-74
2021/12/29 06:34:49;;;;;;;5.68;2.47;;;11.00;99.90;;;;;;5033303;28;20052;-75
2021/12/29 06:37:53;;;;;;;8.68;2.33;;;10.90;99.90;;;;;;5033334;28;20052;-75
2021/12/29 06:40:58;;;;;;;5.95;2.60;;;11.00;99.90;;;;;;5032936;28;20044;-74
2021/12/29 06:44:03;;;;;;;17.65;8.52;;;10.90;99.90;;;;;;5032927;28;20052;-75
2021/12/29 06:47:08;;;;;;;51.50;33.42;;;10.90;99.90;;;;;;5032858;28;20045;-74
2021/12/29 06:50:12;;;;;;;57.67;38.95;;;10.90;99.90;;;;;;5031830;28;20040;-74
2021/12/29 06:53:16;;;;;;;20.83;10.55;;;10.90;99.90;;;;;;5043936;28;20052;-74
2021/12/29 06:56:20;;;;;;;23.02;11.85;;;10.90;99.90;;;;;;5032507;28;20044;-74
2021/12/29 06:59:24;;;;;;;74.03;30.60;;;11.00;99.90;;;;;;5032325;28;20060;-74
2021/12/29 07:02:30;;;;;;;39.55;17.60;;;11.00;99.90;;;;;;5032719;28;20396;-74
2021/12/29 07:05:34;;;;;;;32.67;13.38;;;11.00;99.90;;;;;;5033012;28;20040;-75
2021/12/29 07:08:40;;;;;;;18.52;5.68;;;11.00;99.90;;;;;;5031583;28;20037;-74
2021/12/29 07:11:45;;;;;;;19.30;5.78;;;11.00;99.90;;;;;;5032776;28;20547;-75
2021/12/29 07:14:49;;;;;;;11.10;3.38;;;11.10;99.90;;;;;;5032619;28;20350;-75
2021/12/29 07:17:53;;;;;;;4.82;2.47;;;11.10;99.90;;;;;;5032155;28;20049;-75
2021/12/29 07:20:56;;;;;;;7.80;2.42;;;11.20;99.90;;;;;;5032673;28;20045;-75
2021/12/29 07:24:01;;;;;;;3.08;1.77;;;11.20;99.90;;;;;;5032265;28;20551;-75
2021/12/29 07:27:05;;;;;;;9.02;2.30;;;11.30;99.90;;;;;;5032306;28;20412;-75
2021/12/29 07:30:11;;;;;;;13.23;2.60;;;11.40;99.90;;;;;;5032140;28;20048;-74
2021/12/29 07:33:15;;;;;;;7.50;3.00;;;11.50;99.90;;;;;;5032260;28;20052;-74
2021/12/29 07:36:19;;;;;;;11.98;3.63;;;11.20;99.90;;;;;;5032297;28;20060;-75
2021/12/29 07:39:23;;;;;;;9.23;3.35;;;11.00;99.90;;;;;;5031767;28;20065;-75
2021/12/29 07:42:27;;;;;;;8.23;3.50;;;11.00;99.90;;;;;;5031828;28;20247;-75
2021/12/29 07:45:31;;;;;;;8.63;3.33;;;11.20;99.90;;;;;;5032057;28;20048;-75
2021/12/29 07:48:36;;;;;;;8.80;3.10;;;11.10;99.90;;;;;;5031335;28;20036;-75
2021/12/29 07:51:41;;;;;;;5.47;2.72;;;11.20;99.90;;;;;;5032476;28;20052;-74
2021/12/29 07:54:45;;;;;;;6.28;2.58;;;11.20;99.90;;;;;;5031749;28;20507;-74
2021/12/29 07:57:50;;;;;;;10.65;3.10;;;11.10;99.90;;;;;;5032104;28;20077;-75
2021/12/29 08:00:54;;;;;;;7.47;3.25;;;11.10;99.90;;;;;;5031192;28;20049;-74
2021/12/29 08:03:57;;;;;;;5.82;3.15;;;11.10;99.90;;;;;;5031511;28;20045;-75
2021/12/29 08:07:02;;;;;;;10.88;3.50;;;11.10;99.90;;;;;;5042263;28;20052;-74
2021/12/29 08:10:06;;;;;;;12.77;3.22;;;11.20;99.90;;;;;;5031117;28;20500;-75
2021/12/29 08:13:10;;;;;;;14.50;4.97;;;11.20;99.90;;;;;;5030812;28;20040;-75
2021/12/29 08:16:14;;;;;;;10.98;5.18;;;11.00;99.90;;;;;;5031390;28;20052;-75
2021/12/29 08:19:18;;;;;;;11.18;5.20;;;11.10;99.90;;;;;;5031287;28;20032;-75
2021/12/29 08:22:21;;;;;;;10.65;5.28;;;11.20;99.90;;;;;;5031544;28;20052;-74
2021/12/29 08:25:26;;;;;;;7.57;3.10;;;11.20;99.90;;;;;;5031411;28;20056;-74
2021/12/29 08:28:30;;;;;;;8.35;3.47;;;11.20;99.90;;;;;;5030791;28;20037;-74
2021/12/29 08:31:34;;;;;;;4.95;2.92;;;11.20;99.90;;;;;;5030278;28;20380;-74
2021/12/29 08:34:38;;;;;;;9.20;2.95;;;11.30;99.90;;;;;;5031134;28;20428;-75
2021/12/29 08:37:43;;;;;;;6.15;2.60;;;11.40;99.90;;;;;;5031363;28;20045;-75
2021/12/29 08:40:48;;;;;;;10.13;2.75;;;11.50;99.90;;;;;;5030877;28;20052;-74
2021/12/29 08:43:52;;;;;;;11.25;3.13;;;11.80;99.90;;;;;;5041655;28;20059;-75
2021/12/29 08:46:56;;;;;;;10.25;3.65;;;12.10;99.90;;;;;;5030039;28;20048;-75
2021/12/29 08:50:00;;;;;;;7.22;3.45;;;12.30;99.90;;;;;;5030960;28;20052;-75
2021/12/29 08:53:06;;;;;;;9.50;4.55;;;12.50;99.90;;;;;;5031247;28;20041;-75
2021/12/29 08:56:10;;;;;;;10.07;4.57;;;12.40;99.90;;;;;;5030842;28;20044;-75
2021/12/29 08:59:14;;;;;;;10.60;3.95;;;12.30;99.90;;;;;;5030166;28;20404;-75
2021/12/29 09:02:18;;;;;;;18.27;5.43;;;12.70;99.90;;;;;;5030987;28;20048;-74
2021/12/29 09:05:22;;;;;;;9.73;4.50;;;12.90;99.90;;;;;;5030646;28;20040;-75
2021/12/29 09:08:27;;;;;;;14.23;4.40;;;12.90;99.90;;;;;;5030885;28;20057;-74
2021/12/29 09:11:30;;;;;;;11.32;3.97;;;13.00;99.90;;;;;;5030514;28;20048;-74
2021/12/29 09:14:34;;;;;;;8.02;4.18;;;12.40;99.90;;;;;;5030945;28;20051;-74
2021/12/29 09:17:39;;;;;;;10.60;4.75;;;12.40;99.90;;;;;;5030800;28;20048;-74
2021/12/29 09:20:47;;;;;;;11.75;4.45;;;12.40;99.90;;;;;;5029906;28;20068;-74
2021/12/29 09:23:53;;;;;;;9.93;3.70;;;12.70;99.90;;;;;;5030196;28;20040;-75
2021/12/29 09:26:58;;;;;;;10.02;3.45;;;14.70;99.90;;;;;;5030421;28;20515;-75
2021/12/29 09:30:02;;;;;;;9.98;3.67;;;16.50;99.90;;;;;;5030431;28;20044;-75
2021/12/29 09:33:07;;;;;;;6.85;2.90;;;16.80;99.90;;;;;;5030008;28;20049;-75
2021/12/29 09:36:12;;;;;;;3.88;2.03;;;16.50;99.90;;;;;;5030684;28;20053;-75
2021/12/29 09:39:17;;;;;;;7.20;2.45;;;17.10;99.90;;;;;;5030232;28;20040;-75
2021/12/29 09:42:21;;;;;;;8.02;2.50;;;19.50;99.90;;;;;;5030673;28;20036;-75
2021/12/29 09:45:25;;;;;;;7.00;2.53;;;22.70;99.90;;;;;;5030016;28;20044;-76
2021/12/29 09:48:29;;;;;;;5.18;2.40;;;23.30;99.90;;;;;;5029481;28;20040;-76
2021/12/29 09:51:33;;;;;;;11.25;3.15;;;23.00;99.90;;;;;;5030301;28;20040;-76
2021/12/29 09:54:39;;;;;;;4.32;2.20;;;23.70;99.90;;;;;;5030233;28;20058;-75
2021/12/29 09:57:45;;;;;;;11.68;2.92;;;22.20;99.90;;;;;;5030116;28;20052;-75
2021/12/29 10:00:54;;;;;;;4.30;2.28;;;21.60;99.90;;;;;;5030386;28;20400;-73
2021/12/29 10:03:58;;;;;;;7.53;2.20;;;25.40;99.90;;;;;;5029720;28;20432;-74
2021/12/29 10:07:29;;;;;;;5.60;1.98;;;28.10;99.90;;;;;;5017816;28;20045;-73
2021/12/29 10:10:39;;;;;;;5.93;2.50;;;29.90;95.90;;;;;;5030157;28;20053;-73
2021/12/29 10:13:47;;;;;;;4.63;2.10;;;30.90;94.10;;;;;;5029809;28;20496;-73
2021/12/29 10:16:51;;;;;;;4.45;2.05;;;29.10;94.60;;;;;;5030062;28;20045;-73
2021/12/29 10:20:09;;;;;;;7.43;2.10;;;29.50;93.10;;;;;;5029566;28;20056;-73
2021/12/29 10:23:25;;;;;;;6.03;2.15;;;27.50;93.10;;;;;;5039977;28;20400;-75
2021/12/29 10:26:33;;;;;;;6.60;2.17;;;26.40;95.10;;;;;;5030053;28;20052;-76
2021/12/29 10:29:40;;;;;;;7.10;2.00;;;24.90;96.40;;;;;;5029693;28;20428;-75
2021/12/29 10:32:45;;;;;;;7.18;2.28;;;25.10;97.90;;;;;;5032341;28;20044;-75
2021/12/29 10:35:49;;;;;;;6.38;2.10;;;27.50;96.50;;;;;;5033538;28;20408;-73
2021/12/29 10:39:07;;;;;;;4.65;2.47;;;28.00;94.80;;;;;;5033366;28;20048;-73
2021/12/29 10:42:19;;;;;;;7.13;1.98;;;26.10;96.40;;;;;;5035719;28;20424;-72
2021/12/29 10:45:38;;;;;;;5.40;2.13;;;23.80;99.10;;;;;;5033206;28;20068;-75
2021/12/29 10:48:47;;;;;;;5.45;2.25;;;22.00;99.90;;;;;;5033258;28;20388;-75
2021/12/29 10:51:51;;;;;;;8.10;2.25;;;20.90;99.90;;;;;;5033101;28;20399;-75
2021/12/29 10:54:55;;;;;;;8.32;2.47;;;20.20;99.90;;;;;;5033230;28;20396;-75
2021/12/29 10:58:14;;;;;;;6.57;2.00;;;19.70;99.90;;;;;;5033029;28;20052;-76
2021/12/29 11:01:18;;;;;;;8.65;2.30;;;19.70;99.90;;;;;;5032981;28;20045;-75
2021/12/29 11:04:26;;;;;;;8.75;2.40;;;19.60;99.90;;;;;;5032715;28;20044;-75
2021/12/29 11:07:33;;;;;;;5.93;2.42;;;20.00;99.90;;;;;;5032842;28;20049;-75
2021/12/29 11:10:37;;;;;;;7.40;2.50;;;20.40;99.90;;;;;;5032186;28;20396;-75
2021/12/29 11:13:42;;;;;;;7.38;2.00;;;20.80;99.90;;;;;;5031814;28;20041;-75
2021/12/29 11:17:07;;;;;;;4.43;1.23;;;22.10;99.90;;;;;;5032622;28;20052;-73
2021/12/29 11:20:25;;;;;;;3.45;1.50;;;26.00;99.90;;;;;;5032924;28;20032;-74
2021/12/29 11:23:35;;;;;;;3.75;1.33;;;29.80;96.00;;;;;;5032179;28;20047;-74
2021/12/29 11:26:40;;;;;;;4.97;1.63;;;32.10;90.50;;;;;;5032529;28;20053;-74
2021/12/29 11:29:53;;;;;;;6.78;1.45;;;31.90;89.30;;;;;;5031258;28;20036;-74
2021/12/29 11:33:10;;;;;;;4.28;1.30;;;31.20;87.50;;;;;;5032081;28;20048;-74
2021/12/29 11:36:21;;;;;;;5.50;1.50;;;30.40;88.30;;;;;;5032174;28;20388;-74
2021/12/29 11:39:26;;;;;;;4.40;1.33;;;30.30;88.20;;;;;;5031753;28;20041;-75
2021/12/29 11:42:31;;;;;;;6.57;1.42;;;30.30;87.00;;;;;;5031858;28;20058;-73
2021/12/29 11:45:37;;;;;;;4.93;1.50;;;29.60;86.80;;;;;;5031800;28;20044;-74
2021/12/29 11:48:41;;;;;;;5.57;1.20;;;29.40;88.60;;;;;;5031278;28;20049;-72
2021/12/29 11:52:13;;;;;;;3.67;1.40;;;28.50;87.20;;;;;;5032026;28;20043;-73
2021/12/29 11:55:24;;;;;;;3.70;1.33;;;28.10;88.80;;;;;;5039857;28;20052;-75
2021/12/29 11:58:41;;;;;;;3.08;1.10;;;27.40;90.60;;;;;;5030828;28;20044;-74
2021/12/29 12:01:55;;;;;;;5.32;1.65;;;26.30;90.90;;;;;;5031713;28;20048;-75
2021/12/29 12:05:10;;;;;;;3.38;1.10;;;25.10;91.80;;;;;;5041403;28;20045;-76
2021/12/29 12:08:21;;;;;;;7.60;1.50;;;24.30;94.30;;;;;;5030927;28;20036;-75
2021/12/29 12:11:27;;;;;;;10.02;2.63;;;24.20;93.70;;;;;;5031303;28;20480;-75
2021/12/29 12:14:36;;;;;;;5.45;1.45;;;24.50;93.70;;;;;;5030197;28;20056;-76
2021/12/29 12:17:41;;;;;;;3.28;1.48;;;25.30;93.80;;;;;;5031089;28;20060;-75
2021/12/29 12:20:50;;;;;;;6.57;1.45;;;25.90;92.50;;;;;;5031419;28;20044;-75
2021/12/29 12:23:55;;;;;;;4.72;1.33;;;26.50;92.50;;;;;;5030742;28;20056;-76
2021/12/29 12:27:05;;;;;;;4.82;1.63;;;26.90;92.40;;;;;;5031012;28;20048;-76
2021/12/29 12:30:20;;;;;;;4.82;1.50;;;27.40;92.20;;;;;;5030359;28;20044;-76
2021/12/29 12:33:27;;;;;;;9.38;2.13;;;27.90;91.80;;;;;;5030987;28;20049;-76
2021/12/29 12:36:32;;;;;;;8.18;2.10;;;28.10;91.70;;;;;;5030617;28;20040;-76
2021/12/29 12:39:37;;;;;;;5.15;1.75;;;28.10;91.40;;;;;;5030466;28;20498;-76
2021/12/29 12:42:42;;;;;;;6.75;2.10;;;27.40;91.70;;;;;;5031103;28;20376;-76
2021/12/29 12:45:50;;;;;;;6.20;1.42;;;26.50;91.80;;;;;;5030487;28;20041;-75
2021/12/29 12:48:55;;;;;;;9.43;3.95;;;24.00;94.10;;;;;;5030255;28;20040;-75
2021/12/29 12:52:04;;;;;;;4.05;1.63;;;23.90;94.80;;;;;;5030769;28;20049;-75
2021/12/29 12:55:11;;;;;;;8.80;1.88;;;23.00;95.30;;;;;;5029552;28;20060;-75
2021/12/29 12:58:17;;;;;;;8.35;2.00;;;22.00;96.60;;;;;;5030030;28;20052;-75
2021/12/29 13:01:25;;;;;;;8.15;1.88;;;21.00;99.90;;;;;;5029336;28;20040;-75
2021/12/29 13:04:29;;;;;;;4.63;1.75;;;20.30;99.90;;;;;;5030626;28;20392;-75
2021/12/29 13:07:34;;;;;;;5.35;1.52;;;19.70;99.90;;;;;;5030312;28;20062;-75
2021/12/29 13:10:45;;;;;;;7.25;1.73;;;19.20;99.90;;;;;;5030286;28;20388;-75
2021/12/29 13:13:53;;;;;;;4.30;1.63;;;18.80;99.90;;;;;;5030279;28;20049;-75
2021/12/29 13:16:58;;;;;;;6.40;2.28;;;18.50;99.90;;;;;;5030388;28;20384;-75
2021/12/29 13:20:04;;;;;;;7.85;1.73;;;18.40;99.90;;;;;;5028809;28;20519;-75
2021/12/29 13:23:10;;;;;;;8.00;2.08;;;18.40;99.90;;;;;;5030498;28;20052;-74
2021/12/29 13:26:16;;;;;;;5.70;1.60;;;18.20;99.90;;;;;;5030009;28;20048;-74
2021/12/29 13:29:23;;;;;;;10.02;2.25;;;18.00;99.90;;;;;;5029822;28;20049;-74
2021/12/29 13:32:27;;;;;;;10.00;1.90;;;17.80;99.90;;;;;;5030081;28;20076;-74
2021/12/29 13:35:35;;;;;;;9.48;1.88;;;17.50;99.90;;;;;;5030177;28;20057;-74
2021/12/29 13:38:40;;;;;;;6.22;1.88;;;17.20;99.90;;;;;;5030054;28;20056;-76
2021/12/29 13:41:45;;;;;;;6.80;2.03;;;17.00;99.90;;;;;;5030188;28;20116;-74
2021/12/29 13:44:49;;;;;;;9.55;2.30;;;16.90;99.90;;;;;;5029614;28;20072;-74
2021/12/29 13:47:54;;;;;;;7.43;1.80;;;16.80;99.90;;;;;;5030015;28;20048;-74
2021/12/29 13:51:23;;;;;;;8.60;1.98;;;16.70;99.90;;;;;;5029953;28;20523;-74
2021/12/29 13:54:27;;;;;;;9.32;2.13;;;16.60;99.90;;;;;;5029810;28;20089;-74
2021/12/29 13:57:33;;;;;;;90.13;45.45;;;16.50;99.90;;;;;;5029859;28;20048;-74
2021/12/29 14:00:37;;;;;;;32.70;18.80;;;16.40;99.90;;;;;;5029774;28;20661;-74
2021/12/29 14:03:42;;;;;;;7.53;3.30;;;16.20;99.90;;;;;;5029788;28;20041;-74
2021/12/29 14:06:51;;;;;;;10.23;4.50;;;16.10;99.90;;;;;;5030593;28;20052;-74
2021/12/29 14:09:58;;;;;;;6.05;2.45;;;16.00;99.90;;;;;;5032908;28;20108;-74
2021/12/29 14:13:12;;;;;;;13.38;4.00;;;15.80;99.90;;;;;;5033674;28;20048;-74
2021/12/29 14:16:18;;;;;;;10.20;3.40;;;15.60;99.90;;;;;;5033326;28;20385;-74
2021/12/29 14:19:25;;;;;;;7.70;2.50;;;15.50;99.90;;;;;;5033067;28;20052;-74
2021/12/29 14:22:31;;;;;;;8.30;2.72;;;15.30;99.90;;;;;;5033294;28;20055;-75
2021/12/29 14:25:37;;;;;;;12.68;4.22;;;15.20;99.90;;;;;;5032916;28;20040;-74
2021/12/29 14:28:57;;;;;;;15.40;4.88;;;15.00;99.90;;;;;;5033099;28;20339;-75
2021/12/29 14:32:03;;;;;;;12.60;3.67;;;15.10;99.90;;;;;;5033141;28;20036;-75
2021/12/29 14:35:08;;;;;;;11.43;4.57;;;15.10;99.90;;;;;;5033081;28;20088;-74
2021/12/29 14:38:12;;;;;;;6.72;3.33;;;15.20;99.90;;;;;;5032587;28;20033;-74
2021/12/29 14:41:20;;;;;;;11.27;4.63;;;15.30;99.90;;;;;;5033216;28;20499;-76
2021/12/29 14:44:24;;;;;;;13.18;5.25;;;15.30;99.90;;;;;;5033109;28;20515;-76
2021/12/29 14:47:29;;;;;;;16.38;6.68;;;15.30;99.90;;;;;;5032786;28;20057;-75
2021/12/29 14:50:39;;;;;;;14.77;6.20;;;15.20;99.90;;;;;;5032985;28;20056;-76
2021/12/29 14:53:44;;;;;;;15.27;4.47;;;15.10;99.90;;;;;;5032534;28;20036;-74
2021/12/29 14:56:55;;;;;;;22.50;9.75;;;15.00;99.90;;;;;;5043632;28;20048;-74
2021/12/29 15:00:10;;;;;;;14.45;4.70;;;14.90;99.90;;;;;;5032018;28;20044;-74
2021/12/29 15:03:19;;;;;;;9.10;2.80;;;14.80;99.90;;;;;;5032880;28;20049;-74
2021/12/29 15:06:33;;;;;;;15.32;7.45;;;14.70;99.90;;;;;;5032190;28;20515;-76
2021/12/29 15:09:37;;;;;;;14.27;6.63;;;14.60;99.90;;;;;;5032061;28;20040;-76
2021/12/29 15:12:49;;;;;;;9.43;4.20;;;14.60;99.90;;;;;;5032193;28;20252;-76
2021/12/29 15:15:57;;;;;;;;;;;14.60;99.90;;;;;;5032697;28;20048;-76
2021/12/29 15:19:01;;;;;;;8.73;2.50;;;14.60;99.90;;;;;;5030949;28;19916;-76
2021/12/29 15:22:05;;;;;;;16.17;5.25;;;14.60;99.90;;;;;;5032105;28;20415;-76
2021/12/29 15:25:18;;;;;;;31.63;13.27;;;14.60;99.90;;;;;;5032518;28;20044;-76
2021/12/29 15:28:25;;;;;;;48.90;27.00;;;14.50;99.90;;;;;;5031949;28;20049;-75
2021/12/29 15:31:29;;;;;;;14.73;6.93;;;14.40;99.90;;;;;;5031095;28;20108;-75
2021/12/29 15:34:33;;;;;;;25.70;9.65;;;14.30;99.90;;;;;;5032336;28;20053;-75
2021/12/29 15:37:37;;;;;;;48.20;32.53;;;14.20;99.90;;;;;;5031768;28;20041;-75
2021/12/29 15:40:43;;;;;;;26.27;15.63;;;14.10;99.90;;;;;;5032057;28;20048;-75
2021/12/29 15:43:47;;;;;;;13.90;4.70;;;14.10;99.90;;;;;;5032014;28;20120;-76
2021/12/29 15:46:52;;;;;;;14.00;4.30;;;14.00;99.90;;;;;;5032007;28;20393;-76
2021/12/29 15:49:56;;;;;;;16.95;8.05;;;14.00;99.90;;;;;;5031250;28;20037;-74
2021/12/29 15:53:02;;;;;;;11.73;4.03;;;13.90;99.90;;;;;;5031823;28;20048;-75
2021/12/29 15:56:06;;;;;;;13.00;6.72;;;13.90;99.90;;;;;;5031631;28;20404;-76
2021/12/29 15:59:09;;;;;;;8.35;3.53;;;13.90;99.90;;;;;;5042005;28;20520;-76
2021/12/29 16:02:13;;;;;;;8.95;3.75;;;13.90;99.90;;;;;;5031603;28;20056;-76
2021/12/29 16:05:20;;;;;;;11.85;5.45;;;13.90;99.90;;;;;;5031425;28;20048;-76
2021/12/29 16:08:25;;;;;;;20.98;9.10;;;13.90;99.90;;;;;;5031132;28;20056;-76
2021/12/29 16:11:29;;;;;;;34.80;23.85;;;13.90;99.90;;;;;;5031544;28;20048;-76